Time;durP1;ratioP1;P1;durP2;ratioP2;P2;SDS_P1;SDS_P2;PMS_P1;PMS_P2;Temp;Humidity;BMP_temperature;BMP_pressure;BME280_temperature;BME280_humidity;BME280_pressure;Samples;Min_cycle;Max_cycle;Signal;HPM_P1;HPM_P2
2024/02/24 00:01:26;;;;;;;1.10;1.10;;;;;;;-1.36;94.13;96819.47;4940135;28;20469;-91
2024/02/24 00:03:52;;;;;;;1.10;1.10;;;;;;;-1.24;94.40;96820.00;4954340;28;20033;-91
2024/02/24 00:06:17;;;;;;;1.10;1.10;;;;;;;-0.97;93.71;96820.28;4957590;28;20030;-92
2024/02/24 00:08:43;;;;;;;1.05;1.05;;;;;;;-0.76;93.90;96820.31;4957283;28;20054;-91
2024/02/24 00:11:08;;;;;;;1.10;1.10;;;;;;;-0.60;93.36;96824.44;4961868;28;20054;-93
2024/02/24 00:13:34;;;;;;;1.10;1.10;;;;;;;-0.51;92.47;96822.22;4949360;28;20051;-93
2024/02/24 00:15:59;;;;;;;1.13;1.13;;;;;;;-0.59;92.73;96814.03;4965541;28;20061;-92
2024/02/24 00:18:25;;;;;;;1.10;1.10;;;;;;;-0.61;92.80;96822.66;4964290;28;20102;-92
2024/02/24 00:20:51;;;;;;;1.15;1.15;;;;;;;-0.57;92.66;96828.09;4957858;28;21166;-94
2024/02/24 00:23:16;;;;;;;1.10;1.10;;;;;;;-0.46;92.36;96818.03;4975870;28;20035;-94
2024/02/24 00:25:42;;;;;;;1.10;1.10;;;;;;;-0.51;91.87;96819.59;4976917;28;20031;-92
2024/02/24 00:28:09;;;;;;;1.10;1.10;;;;;;;-0.53;91.81;96816.91;4972948;28;20039;-92
2024/02/24 00:30:35;;;;;;;1.20;1.20;;;;;;;-0.47;92.03;96813.66;4942093;28;20180;-91
2024/02/24 00:33:02;;;;;;;1.10;1.10;;;;;;;-0.60;91.80;96814.88;4955036;28;20051;-92
2024/02/24 00:35:28;;;;;;;1.00;1.00;;;;;;;-0.77;92.50;96815.88;4958206;28;20463;-91
2024/02/24 00:37:55;;;;;;;1.00;1.00;;;;;;;-0.83;93.00;96808.66;4939284;28;20030;-90
2024/02/24 00:40:21;;;;;;;1.10;1.10;;;;;;;-0.74;92.46;96816.00;4952811;28;20073;-90
2024/02/24 00:42:46;;;;;;;1.00;1.00;;;;;;;-0.89;92.79;96813.66;4940261;28;20313;-91
2024/02/24 00:45:12;;;;;;;1.10;1.10;;;;;;;-0.68;92.79;96816.25;4948532;28;20069;-91
2024/02/24 00:47:37;;;;;;;1.10;1.10;;;;;;;-0.71;92.04;96812.66;4951547;28;20027;-90
2024/02/24 00:50:03;;;;;;;1.08;1.08;;;;;;;-0.73;92.04;96816.91;4961620;28;20115;-92
2024/02/24 00:52:31;;;;;;;1.10;1.10;;;;;;;-0.70;92.61;96812.69;4963837;28;20047;-91
2024/02/24 00:54:56;;;;;;;1.10;1.10;;;;;;;-0.72;92.83;96813.44;4945388;28;20145;-92
2024/02/24 00:57:23;;;;;;;1.20;1.20;;;;;;;-0.76;91.89;96816.81;4966735;28;20722;-91
2024/02/24 00:59:49;;;;;;;1.08;1.08;;;;;;;-0.51;92.52;96819.59;4969951;28;20042;-93
2024/02/24 01:02:14;;;;;;;1.10;1.10;;;;;;;-0.47;91.66;96818.88;4925165;28;20401;-92
2024/02/24 01:04:40;;;;;;;1.00;1.00;;;;;;;-0.52;92.17;96812.56;4948581;28;20313;-92
2024/02/24 01:07:07;;;;;;;1.10;1.10;;;;;;;-0.38;91.80;96814.03;4941676;28;20209;-92
2024/02/24 01:09:33;;;;;;;1.20;1.20;;;;;;;-0.53;92.38;96821.22;4955644;28;20046;-92
2024/02/24 01:12:02;;;;;;;1.10;1.10;;;;;;;-0.38;92.85;96826.22;4953818;28;20043;-92
2024/02/24 01:14:27;;;;;;;1.10;1.10;;;;;;;-0.21;91.75;96829.50;4959526;28;20033;-91
2024/02/24 01:16:53;;;;;;;1.00;1.00;;;;;;;-0.21;92.01;96819.91;4948926;28;20035;-92
2024/02/24 01:19:18;;;;;;;1.10;1.10;;;;;;;-0.05;90.61;96817.09;4953869;28;20409;-90
2024/02/24 01:21:44;;;;;;;1.10;1.10;;;;;;;0.12;90.89;96816.84;4952479;28;20058;-90
2024/02/24 01:24:10;;;;;;;1.10;1.10;;;;;;;-0.10;91.13;96813.34;4947332;28;20026;-92
2024/02/24 01:26:36;;;;;;;1.10;1.10;;;;;;;-0.16;91.54;96814.84;4950611;28;20476;-92
2024/02/24 01:29:01;;;;;;;1.10;1.10;;;;;;;-0.10;91.78;96810.75;4952250;28;20035;-91
2024/02/24 01:31:27;;;;;;;1.05;1.05;;;;;;;-0.38;91.49;96814.03;4941733;28;20039;-90
2024/02/24 01:33:53;;;;;;;1.10;1.10;;;;;;;-0.41;91.94;96811.25;4941213;28;20059;-92
2024/02/24 01:36:18;;;;;;;1.10;1.10;;;;;;;-0.39;92.25;96804.34;4936654;28;20045;-91
2024/02/24 01:38:43;;;;;;;1.00;1.00;;;;;;;-0.65;92.59;96812.88;4954266;28;20030;-91
2024/02/24 01:41:10;;;;;;;1.10;1.10;;;;;;;-0.66;92.94;96813.72;4939943;28;20050;-91
2024/02/24 01:43:37;;;;;;;1.10;1.10;;;;;;;-0.59;93.07;96811.41;4958909;28;20449;-91
2024/02/24 01:46:05;;;;;;;1.10;1.10;;;;;;;-0.59;92.88;96816.63;4972648;28;20098;-91
2024/02/24 01:48:32;;;;;;;1.00;1.00;;;;;;;-0.60;93.50;96816.59;4951050;28;20034;-91
2024/02/24 01:50:58;;;;;;;1.10;1.10;;;;;;;-0.52;93.60;96829.19;4957926;28;20035;-90
2024/02/24 01:53:26;;;;;;;1.20;1.20;;;;;;;-0.44;93.88;96832.09;4973165;28;20042;-91
2024/02/24 01:55:53;;;;;;;1.10;1.10;;;;;;;-0.38;93.61;96832.34;4942779;28;20042;-92
2024/02/24 01:58:20;;;;;;;1.10;1.10;;;;;;;-0.32;92.69;96835.22;4955107;28;20027;-92
2024/02/24 02:00:46;;;;;;;1.10;1.10;;;;;;;-0.43;92.81;96836.53;4951839;28;20545;-91
2024/02/24 02:03:12;;;;;;;1.10;1.10;;;;;;;-0.61;92.72;96835.75;4963645;28;20054;-93
2024/02/24 02:05:38;;;;;;;1.10;1.10;;;;;;;-0.59;93.13;96836.69;4963601;28;20382;-91
2024/02/24 02:08:04;;;;;;;1.08;1.08;;;;;;;-0.60;93.07;96834.91;4953668;29;20042;-93
2024/02/24 02:10:43;;;;;;;1.08;1.08;;;;;;;-0.62;93.56;96840.09;4939124;28;20035;-92
2024/02/24 02:13:08;;;;;;;1.10;1.10;;;;;;;-0.60;93.74;96853.25;4953023;28;20039;-92
2024/02/24 02:15:36;;;;;;;1.10;1.10;;;;;;;-0.44;93.45;96844.28;4938976;28;20037;-93
2024/02/24 02:18:02;;;;;;;1.10;1.10;;;;;;;-0.42;93.85;96847.88;4940744;28;20058;-92
2024/02/24 02:20:28;;;;;;;1.10;1.10;;;;;;;-0.36;93.44;96846.41;4947851;28;20042;-92
2024/02/24 02:22:53;;;;;;;1.10;1.10;;;;;;;-0.19;93.91;96839.22;4938411;28;20227;-92
2024/02/24 02:25:19;;;;;;;1.00;1.00;;;;;;;-0.08;92.52;96827.44;4951673;28;20035;-92
2024/02/24 02:27:44;;;;;;;1.00;1.00;;;;;;;-0.06;91.85;96824.88;4954837;28;20114;-92
2024/02/24 02:30:10;;;;;;;1.10;1.10;;;;;;;0.07;91.75;96826.25;4941150;28;20073;-92
2024/02/24 02:32:36;;;;;;;1.00;1.00;;;;;;;0.07;91.04;96827.13;4942078;28;20115;-93
2024/02/24 02:35:01;;;;;;;1.00;1.00;;;;;;;0.13;91.39;96831.72;4952244;28;20039;-91
2024/02/24 02:37:27;;;;;;;1.10;1.10;;;;;;;0.25;91.29;96832.19;4937665;28;20062;-94
2024/02/24 02:39:53;;;;;;;1.10;1.10;;;;;;;0.34;90.98;96844.78;4976570;28;20027;-94
2024/02/24 02:42:19;;;;;;;1.10;1.10;;;;;;;0.34;90.61;96840.44;4995095;28;20107;-93
2024/02/24 02:44:44;;;;;;;1.02;1.02;;;;;;;0.28;90.25;96844.53;4949802;28;20066;-92
2024/02/24 02:47:10;;;;;;;1.10;1.10;;;;;;;0.25;90.89;96842.69;4962639;28;20446;-91
2024/02/24 02:49:36;;;;;;;1.00;1.00;;;;;;;0.43;90.99;96835.53;4942932;28;20062;-91
2024/02/24 02:52:02;;;;;;;1.02;1.02;;;;;;;0.46;90.99;96834.72;4949228;28;20066;-90
2024/02/24 02:54:27;;;;;;;0.98;0.98;;;;;;;0.44;90.33;96823.31;4952860;29;20031;-91
2024/02/24 02:56:53;;;;;;;1.00;1.00;;;;;;;0.41;90.30;96820.56;4972588;28;20035;-91
2024/02/24 02:59:18;;;;;;;1.10;1.10;;;;;;;0.30;90.42;96837.63;4956135;29;20125;-90
2024/02/24 03:01:48;;;;;;;1.00;1.00;;;;;;;0.19;90.24;96838.13;4964114;28;20069;-90
2024/02/24 03:04:14;;;;;;;1.10;1.10;;;;;;;0.00;91.17;96840.84;4977421;28;20062;-89
2024/02/24 03:06:39;;;;;;;1.10;1.10;;;;;;;-0.32;92.19;96842.19;4982353;28;20030;-90
2024/02/24 03:09:06;;;;;;;1.00;1.00;;;;;;;-0.59;92.66;96849.78;4967334;28;20039;-90
2024/02/24 03:11:31;;;;;;;1.00;1.00;;;;;;;-0.71;93.28;96852.81;4981204;28;20034;-90
2024/02/24 03:13:57;;;;;;;0.90;0.90;;;;;;;-0.75;94.54;96853.50;4947256;28;20042;-91
2024/02/24 03:16:23;;;;;;;1.00;1.00;;;;;;;-0.91;95.16;96854.59;4961901;29;20027;-91
2024/02/24 03:18:50;;;;;;;1.05;1.05;;;;;;;-0.95;94.83;96862.25;4946069;28;20050;-90
2024/02/24 03:21:33;;;;;;;1.05;1.05;;;;;;;-1.01;95.75;96864.56;4930843;28;20042;-91
2024/02/24 03:23:59;;;;;;;1.10;1.10;;;;;;;-1.02;95.84;96873.25;4962532;28;20074;-90
2024/02/24 03:26:25;;;;;;;1.10;1.10;;;;;;;-1.18;96.04;96869.97;4955531;29;20039;-91
2024/02/24 03:28:50;;;;;;;1.00;1.00;;;;;;;-1.13;96.10;96870.19;4949522;28;20041;-92
2024/02/24 03:31:16;;;;;;;1.10;1.10;;;;;;;-1.13;96.17;96870.19;4959610;28;20042;-89
2024/02/24 03:33:42;;;;;;;1.05;1.05;;;;;;;-1.11;96.29;96872.00;4957478;28;20090;-90
2024/02/24 03:36:14;;;;;;;1.10;1.10;;;;;;;-1.24;95.98;96866.22;4946713;28;20038;-90
2024/02/24 03:38:41;;;;;;;1.00;1.00;;;;;;;-1.13;96.38;96864.94;4958520;28;20405;-90
2024/02/24 03:41:09;;;;;;;1.10;1.10;;;;;;;-1.01;96.37;96862.84;4955345;29;20034;-89
2024/02/24 03:43:35;;;;;;;1.10;1.10;;;;;;;-1.11;96.29;96858.03;4974934;28;20027;-90
2024/02/24 03:46:04;;;;;;;1.00;1.00;;;;;;;-1.12;96.58;96851.03;4960683;28;20030;-90
2024/02/24 03:48:30;;;;;;;1.17;1.17;;;;;;;-0.66;96.71;96840.81;4958777;28;20035;-91
2024/02/24 03:50:56;;;;;;;1.20;1.20;;;;;;;-0.75;96.14;96839.53;4957111;28;20035;-90
2024/02/24 03:53:21;;;;;;;1.00;1.00;;;;;;;-0.56;95.84;96855.19;4957319;28;20501;-91
2024/02/24 03:55:49;;;;;;;1.20;1.20;;;;;;;-0.69;96.00;96860.72;4959918;28;20039;-91
2024/02/24 03:58:16;;;;;;;1.10;1.10;;;;;;;-0.72;96.04;96850.09;4962430;28;20039;-89
2024/02/24 04:00:41;;;;;;;1.10;1.10;;;;;;;-0.71;96.37;96842.34;4956426;28;20065;-89
2024/02/24 04:03:07;;;;;;;1.05;1.05;;;;;;;-0.67;96.11;96845.97;4971747;28;20038;-90
2024/02/24 04:05:32;;;;;;;1.10;1.10;;;;;;;-0.71;96.30;96851.91;4955868;28;20057;-89
2024/02/24 04:07:58;;;;;;;1.10;1.10;;;;;;;-0.70;96.18;96844.13;4970023;28;20046;-90
2024/02/24 04:10:23;;;;;;;1.10;1.10;;;;;;;-0.62;95.94;96840.09;4961369;28;20034;-90
2024/02/24 04:12:49;;;;;;;1.10;1.10;;;;;;;-0.62;95.88;96860.16;4970301;28;20036;-89
2024/02/24 04:15:19;;;;;;;1.10;1.10;;;;;;;-0.33;95.20;96862.25;4954516;28;20114;-90
2024/02/24 04:17:46;;;;;;;1.10;1.10;;;;;;;-0.34;95.15;96856.94;4962225;28;20038;-89
2024/02/24 04:20:12;;;;;;;1.10;1.10;;;;;;;-0.43;95.16;96867.03;4961349;28;20097;-89
2024/02/24 04:22:38;;;;;;;1.10;1.10;;;;;;;-0.50;95.09;96879.00;4958134;28;20039;-91
2024/02/24 04:25:04;;;;;;;1.00;1.00;;;;;;;-0.37;95.04;96873.44;4950560;28;20035;-90
2024/02/24 04:27:30;;;;;;;1.10;1.10;;;;;;;-0.59;94.95;96869.03;4956260;28;20034;-91
2024/02/24 04:29:55;;;;;;;1.00;1.00;;;;;;;-0.85;95.24;96870.53;4971058;28;20037;-90
2024/02/24 04:32:21;;;;;;;1.10;1.10;;;;;;;-1.11;95.12;96884.22;4971041;28;20031;-90
2024/02/24 04:34:46;;;;;;;1.02;1.02;;;;;;;-1.04;95.59;96884.56;4970810;28;20061;-91
2024/02/24 04:37:12;;;;;;;1.10;1.10;;;;;;;-0.64;95.55;96895.84;4960920;28;20034;-89
2024/02/24 04:39:38;;;;;;;1.20;1.20;;;;;;;-0.49;94.99;96896.50;4943978;28;20038;-89
2024/02/24 04:42:04;;;;;;;1.17;1.17;;;;;;;-0.54;94.65;96898.03;4943913;28;20118;-89
2024/02/24 04:44:30;;;;;;;1.10;1.10;;;;;;;-0.70;94.64;96901.72;4940370;28;20030;-89
2024/02/24 04:46:56;;;;;;;1.10;1.10;;;;;;;-0.78;95.44;96903.09;4942643;28;20062;-89
2024/02/24 04:49:21;;;;;;;1.08;1.08;;;;;;;-0.71;95.75;96906.91;4955516;28;20119;-90
2024/02/24 04:51:47;;;;;;;1.10;1.10;;;;;;;-0.81;95.94;96908.22;4950831;29;20041;-91
2024/02/24 04:54:13;;;;;;;1.10;1.10;;;;;;;-0.87;96.23;96908.84;4956077;28;20077;-89
2024/02/24 04:56:39;;;;;;;1.15;1.15;;;;;;;-0.93;96.27;96916.44;4958252;28;20034;-89
2024/02/24 04:59:05;;;;;;;1.10;1.10;;;;;;;-0.87;96.50;96910.56;4955717;28;20048;-89
2024/02/24 05:01:57;;;;;;;1.10;1.10;;;;;;;-0.90;96.16;96913.97;4955056;29;20031;-91
2024/02/24 05:04:23;;;;;;;1.00;1.00;;;;;;;-0.85;96.54;96920.28;4970390;28;20066;-89
2024/02/24 05:06:48;;;;;;;1.10;1.10;;;;;;;-0.96;96.42;96913.66;4954613;28;20058;-90
2024/02/24 05:09:14;;;;;;;1.10;1.10;;;;;;;-0.62;96.28;96917.78;4978695;28;20034;-90
2024/02/24 05:11:40;;;;;;;1.10;1.10;;;;;;;-0.43;95.87;96933.44;4955620;28;20058;-90
2024/02/24 05:14:05;;;;;;;1.13;1.13;;;;;;;-0.46;95.09;96925.44;4954962;28;20097;-88
2024/02/24 05:16:33;;;;;;;1.10;1.10;;;;;;;-0.46;95.28;96914.06;4972096;28;20042;-89
2024/02/24 05:18:59;;;;;;;1.10;1.10;;;;;;;-0.55;95.56;96914.56;4985341;28;20015;-89
2024/02/24 05:21:24;;;;;;;1.10;1.10;;;;;;;-0.51;95.58;96919.13;4960637;28;20039;-89
2024/02/24 05:23:54;;;;;;;1.00;1.00;;;;;;;-0.41;95.61;96925.63;4984789;28;20094;-89
2024/02/24 05:26:27;;;;;;;1.10;1.10;;;;;;;-0.42;94.53;96934.34;4945754;28;20043;-89
2024/02/24 05:28:58;;;;;;;1.10;1.10;;;;;;;-0.44;95.36;96947.34;4960003;28;20030;-89
2024/02/24 05:35:11;;;;;;;1.10;1.10;;;;;;;-0.27;95.35;96941.09;4958874;28;20089;-89
2024/02/24 05:37:42;;;;;;;1.10;1.10;;;;;;;-0.26;95.29;96950.75;4943684;28;20038;-89
2024/02/24 05:40:08;;;;;;;1.00;1.00;;;;;;;-0.21;94.73;96952.66;4951273;29;20393;-89
2024/02/24 05:42:33;;;;;;;1.10;1.10;;;;;;;-0.14;94.84;96967.84;4956336;28;20384;-90
2024/02/24 05:44:59;;;;;;;1.00;1.00;;;;;;;-0.13;94.71;96973.13;4943567;28;20054;-89
2024/02/24 05:47:25;;;;;;;1.10;1.10;;;;;;;-0.13;94.29;96981.00;4962020;28;20050;-89
2024/02/24 05:49:50;;;;;;;1.10;1.10;;;;;;;-0.08;94.72;96984.69;4957740;28;20097;-89
2024/02/24 05:52:16;;;;;;;1.10;1.10;;;;;;;-0.10;94.86;96982.84;4955918;28;20122;-89
2024/02/24 05:54:42;;;;;;;1.10;1.10;;;;;;;0.05;94.83;96982.56;4955205;29;20118;-89
2024/02/24 05:57:07;;;;;;;1.10;1.10;;;;;;;0.06;95.03;96982.66;4959171;28;20034;-89
2024/02/24 05:59:34;;;;;;;1.10;1.10;;;;;;;0.16;95.37;96987.44;4984806;28;20039;-89
2024/02/24 06:02:00;;;;;;;1.00;1.00;;;;;;;0.27;95.10;96986.97;4954570;28;20038;-90
2024/02/24 06:04:25;;;;;;;1.00;1.00;;;;;;;0.24;94.10;96991.28;4959375;28;20033;-90
2024/02/24 06:06:52;;;;;;;1.08;1.08;;;;;;;0.50;93.29;96994.06;4956603;28;20069;-90
2024/02/24 06:09:17;;;;;;;1.10;1.10;;;;;;;0.36;92.58;97003.09;4939946;29;20508;-92
2024/02/24 06:11:53;;;;;;;1.05;1.05;;;;;;;0.40;93.07;96998.03;4948989;28;20034;-90
2024/02/24 06:14:18;;;;;;;1.10;1.10;;;;;;;0.51;92.88;97003.72;4936272;29;20117;-88
2024/02/24 06:16:44;;;;;;;1.10;1.10;;;;;;;0.61;92.14;96991.84;4953882;28;20066;-89
2024/02/24 06:19:09;;;;;;;1.00;1.00;;;;;;;0.73;92.35;97002.84;4954030;28;20109;-89
2024/02/24 06:21:36;;;;;;;1.10;1.10;;;;;;;0.72;92.42;96998.44;4956708;28;20035;-89
2024/02/24 06:24:02;;;;;;;1.00;1.00;;;;;;;0.83;91.54;97017.22;4944253;28;20393;-90
2024/02/24 06:26:33;;;;;;;1.02;1.02;;;;;;;0.84;91.68;97017.25;4940811;28;20041;-91
2024/02/24 06:28:59;;;;;;;1.10;1.10;;;;;;;0.84;91.88;97027.75;4962891;28;20046;-89
2024/02/24 06:31:24;;;;;;;1.10;1.10;;;;;;;0.93;91.73;97024.59;4954582;28;20046;-91
2024/02/24 06:33:50;;;;;;;1.10;1.10;;;;;;;0.98;91.73;97023.94;4961749;28;20174;-90
2024/02/24 06:36:16;;;;;;;1.00;1.00;;;;;;;1.00;91.59;97022.25;4942202;28;20121;-91
2024/02/24 06:38:42;;;;;;;1.00;1.00;;;;;;;1.12;90.67;97037.59;4939988;28;20098;-89
2024/02/24 06:41:08;;;;;;;1.10;1.10;;;;;;;1.19;91.01;97034.34;4950789;29;20042;-91
2024/02/24 06:43:34;;;;;;;1.10;1.10;;;;;;;1.31;90.57;97038.31;4975721;28;20027;-90
2024/02/24 06:46:00;;;;;;;1.00;1.00;;;;;;;1.38;90.07;97049.09;4959966;28;20082;-91
2024/02/24 06:48:25;;;;;;;1.10;1.10;;;;;;;1.50;89.64;97057.44;4960133;28;20038;-90
2024/02/24 06:50:54;;;;;;;1.10;1.10;;;;;;;1.72;87.84;97060.84;4960276;28;20547;-91
2024/02/24 06:53:21;;;;;;;1.00;1.00;;;;;;;1.98;86.28;97057.41;4943859;28;20039;-90
2024/02/24 06:55:47;;;;;;;1.10;1.10;;;;;;;2.00;87.45;97075.88;4939965;28;20035;-92
2024/02/24 06:58:15;;;;;;;1.10;1.10;;;;;;;2.59;82.23;97069.16;4958062;28;20062;-90
2024/02/24 07:00:40;;;;;;;0.95;0.95;;;;;;;3.23;78.78;97073.81;4943571;28;20046;-90
2024/02/24 07:03:06;;;;;;;1.00;1.00;;;;;;;3.18;78.45;97067.53;4940376;29;20039;-90
2024/02/24 07:05:31;;;;;;;1.10;1.10;;;;;;;3.37;77.90;97071.63;4953415;28;20041;-89
2024/02/24 07:07:57;;;;;;;1.00;1.00;;;;;;;3.40;77.65;97073.44;4956922;28;20854;-91
2024/02/24 07:10:23;;;;;;;1.10;1.10;;;;;;;3.41;77.83;97072.59;4928078;28;20046;-91
2024/02/24 07:12:49;;;;;;;1.00;1.00;;;;;;;3.42;78.12;97082.28;4941184;28;20155;-90
2024/02/24 07:15:14;;;;;;;1.00;1.00;;;;;;;3.49;78.07;97089.53;4953187;28;20093;-91
2024/02/24 07:17:40;;;;;;;1.08;1.08;;;;;;;3.47;78.93;97086.84;4954862;28;20035;-90
2024/02/24 07:20:06;;;;;;;0.90;0.90;;;;;;;3.62;77.52;97103.97;4956925;28;20034;-90
2024/02/24 07:22:32;;;;;;;1.00;1.00;;;;;;;3.71;77.40;97114.81;4951550;28;20023;-94
2024/02/24 07:24:58;;;;;;;1.00;1.00;;;;;;;3.72;77.91;97109.56;4966275;28;20057;-91
2024/02/24 07:27:25;;;;;;;1.05;1.05;;;;;;;3.80;77.51;97118.59;4944125;28;20038;-91
2024/02/24 07:29:50;;;;;;;1.10;1.10;;;;;;;3.73;78.31;97119.25;4956285;28;20030;-92
2024/02/24 07:32:16;;;;;;;1.10;1.10;;;;;;;3.77;77.59;97114.97;4961501;28;20050;-91
2024/02/24 07:34:42;;;;;;;0.90;0.90;;;;;;;3.76;78.32;97124.63;4960862;28;20038;-93
2024/02/24 07:37:09;;;;;;;1.00;1.00;;;;;;;3.81;77.60;97114.22;4951649;28;20129;-92
2024/02/24 07:39:36;;;;;;;1.00;1.00;;;;;;;3.80;78.18;97123.00;4937721;28;20038;-93
2024/02/24 07:42:01;;;;;;;0.90;0.90;;;;;;;3.86;77.88;97129.34;4961834;28;20047;-90
2024/02/24 07:44:27;;;;;;;1.00;1.00;;;;;;;3.88;77.72;97139.03;4962912;28;20043;-90
2024/02/24 07:46:53;;;;;;;1.00;1.00;;;;;;;3.91;77.82;97137.38;4958811;28;20035;-91
2024/02/24 07:49:18;;;;;;;1.00;1.00;;;;;;;3.86;77.73;97139.00;4965640;28;20026;-92
2024/02/24 07:51:44;;;;;;;1.00;1.00;;;;;;;3.90;77.91;97148.78;4972252;28;20381;-90
2024/02/24 07:54:09;;;;;;;1.00;1.00;;;;;;;3.90;78.07;97161.09;4950168;28;20026;-90
2024/02/24 07:56:35;;;;;;;1.00;1.00;;;;;;;3.82;78.80;97168.75;4969851;28;20069;-93
2024/02/24 07:59:00;;;;;;;0.98;0.98;;;;;;;3.85;78.41;97161.84;4974589;28;20042;-93
2024/02/24 08:01:27;;;;;;;1.08;1.08;;;;;;;3.86;78.46;97171.53;4953538;29;20035;-93
2024/02/24 08:03:52;;;;;;;1.05;1.05;;;;;;;3.89;79.38;97177.78;4972752;28;20045;-90
2024/02/24 08:06:17;;;;;;;1.00;1.00;;;;;;;3.96;78.76;97177.09;4957456;28;20402;-92
2024/02/24 08:08:43;;;;;;;1.00;1.00;;;;;;;4.07;78.99;97181.84;4954252;28;20094;-92
2024/02/24 08:11:09;;;;;;;1.00;1.00;;;;;;;4.47;76.67;97182.09;4960432;28;20038;-91
2024/02/24 08:13:41;;;;;;;1.00;1.00;;;;;;;4.52;76.07;97181.34;4961455;28;20035;-92
2024/02/24 08:16:07;;;;;;;1.10;1.10;;;;;;;4.83;73.84;97193.63;4939026;28;20089;-91
2024/02/24 08:18:32;;;;;;;1.00;1.00;;;;;;;4.92;73.18;97190.34;4978491;28;20042;-93
2024/02/24 08:21:01;;;;;;;1.08;1.08;;;;;;;5.10;72.62;97193.47;4951887;28;20400;-92
2024/02/24 08:23:27;;;;;;;0.90;0.90;;;;;;;5.11;72.42;97200.53;4948338;28;20027;-92
2024/02/24 08:25:52;;;;;;;0.93;0.93;;;;;;;5.20;72.10;97205.16;4944353;28;20035;-90
2024/02/24 08:28:18;;;;;;;1.00;1.00;;;;;;;5.17;71.91;97213.00;4956283;28;20035;-91
2024/02/24 08:30:43;;;;;;;1.00;1.00;;;;;;;5.28;71.08;97215.94;4966554;28;20035;-90
2024/02/24 08:33:14;;;;;;;1.00;1.00;;;;;;;5.30;70.71;97207.19;4957280;28;20050;-92
2024/02/24 08:35:43;;;;;;;1.00;1.00;;;;;;;5.35;70.33;97232.00;4950969;28;20054;-92
2024/02/24 08:38:10;;;;;;;0.90;0.90;;;;;;;5.38;69.92;97220.63;4953347;28;20030;-92
2024/02/24 08:40:35;;;;;;;1.00;1.00;;;;;;;5.49;69.70;97234.09;4958788;28;20050;-94
2024/02/24 08:43:01;;;;;;;1.00;1.00;;;;;;;5.48;68.80;97227.91;4968129;28;20691;-91
2024/02/24 08:45:26;;;;;;;0.90;0.90;;;;;;;5.59;69.08;97234.34;4974489;28;20505;-91
2024/02/24 08:47:52;;;;;;;1.00;1.00;;;;;;;5.46;68.34;97234.94;4939129;28;20161;-90
2024/02/24 08:50:17;;;;;;;0.90;0.90;;;;;;;5.42;68.69;97240.09;4955241;28;20035;-92
2024/02/24 08:52:43;;;;;;;0.90;0.90;;;;;;;5.47;68.36;97239.34;4940296;28;20515;-91
2024/02/24 08:55:08;;;;;;;0.90;0.90;;;;;;;5.45;68.32;97245.44;4936028;28;20049;-93
2024/02/24 08:57:33;;;;;;;0.90;0.90;;;;;;;5.34;68.04;97239.91;4951925;28;20054;-93
2024/02/24 08:59:59;;;;;;;1.00;1.00;;;;;;;6.01;66.19;97243.31;4936930;28;20027;-91
2024/02/24 09:02:24;;;;;;;1.00;1.00;;;;;;;7.43;61.42;97227.63;4954857;28;20034;-91
2024/02/24 09:04:50;;;;;;;0.98;0.98;;;;;;;8.54;57.45;97230.19;4956188;28;20125;-92
2024/02/24 09:07:15;;;;;;;0.90;0.90;;;;;;;9.30;55.53;97225.75;4936192;28;20672;-91
2024/02/24 09:09:41;;;;;;;0.80;0.80;;;;;;;9.46;54.10;97225.00;4954002;28;20062;-91
2024/02/24 09:12:09;;;;;;;0.80;0.80;;;;;;;9.99;51.55;97216.53;4951411;28;20078;-91
2024/02/24 09:14:34;;;;;;;0.80;0.80;;;;;;;10.28;50.88;97218.53;4965865;28;20038;-92
2024/02/24 09:17:00;;;;;;;0.70;0.70;;;;;;;10.22;49.93;97218.47;4935340;28;20477;-91
2024/02/24 09:19:26;;;;;;;0.70;0.70;;;;;;;10.74;49.23;97224.13;4971624;28;20077;-93
2024/02/24 09:21:51;;;;;;;0.70;0.70;;;;;;;11.24;48.08;97226.94;4971429;28;20122;-91
2024/02/24 09:24:17;;;;;;;0.70;0.70;;;;;;;11.18;48.76;97213.59;4956926;28;20138;-93
2024/02/24 09:26:43;;;;;;;0.70;0.70;;;;;;;10.90;48.61;97219.72;4961339;28;20378;-92
2024/02/24 09:29:08;;;;;;;0.60;0.60;;;;;;;11.44;46.62;97218.97;4980500;28;20038;-91
2024/02/24 09:31:33;;;;;;;0.60;0.60;;;;;;;11.93;46.31;97227.06;4951434;28;20035;-91
2024/02/24 09:34:00;;;;;;;0.60;0.60;;;;;;;11.89;45.71;97219.91;4969502;28;20045;-94
2024/02/24 09:36:26;;;;;;;0.60;0.60;;;;;;;11.60;46.00;97224.34;4957196;28;20035;-93
2024/02/24 09:38:51;;;;;;;0.63;0.63;;;;;;;11.88;44.17;97227.91;4957471;28;20045;-92
2024/02/24 09:41:18;;;;;;;0.60;0.60;;;;;;;10.53;48.50;97241.78;4937948;28;20039;-91
2024/02/24 09:43:44;;;;;;;0.70;0.70;;;;;;;11.64;45.54;97231.44;4968693;28;20374;-92
2024/02/24 09:46:10;;;;;;;0.70;0.70;;;;;;;11.54;44.73;97241.22;4935048;28;20503;-93
2024/02/24 09:48:38;;;;;;;0.73;0.73;;;;;;;12.09;44.36;97240.41;4951433;28;20038;-92
2024/02/24 09:51:04;;;;;;;;;;;;;;;10.59;47.30;97242.69;4952809;28;20050;-92
2024/02/24 09:53:30;;;;;;;0.70;0.70;;;;;;;9.58;49.27;97257.94;4949171;28;19921;-93
2024/02/24 09:55:56;;;;;;;0.90;0.90;;;;;;;11.29;46.38;97258.97;4935102;28;20925;-92
2024/02/24 09:58:22;;;;;;;1.00;1.00;;;;;;;12.26;44.03;97254.63;4937624;28;20283;-91
2024/02/24 10:00:52;;;;;;;0.70;0.70;;;;;;;12.32;43.08;97247.50;4956820;28;20043;-92
2024/02/24 10:03:25;;;;;;;0.60;0.60;;;;;;;12.00;44.17;97247.53;4952741;28;20096;-93
2024/02/24 10:05:50;;;;;;;0.70;0.70;;;;;;;12.24;43.07;97256.41;4963376;28;20039;-93
2024/02/24 10:08:16;;;;;;;0.70;0.70;;;;;;;11.51;45.17;97247.47;4958772;28;20102;-94
2024/02/24 10:10:43;;;;;;;0.88;0.88;;;;;;;11.05;45.60;97257.13;4977050;28;20083;-94
2024/02/24 10:13:09;;;;;;;0.88;0.88;;;;;;;12.19;43.53;97253.75;4963843;28;20039;-92
2024/02/24 10:15:35;;;;;;;0.60;0.60;;;;;;;11.92;43.95;97241.28;4938723;28;20038;-93
2024/02/24 10:18:01;;;;;;;0.80;0.80;;;;;;;14.34;39.34;97232.09;4956816;28;20035;-92
2024/02/24 10:20:29;;;;;;;0.60;0.60;;;;;;;13.49;40.04;97233.66;4976417;28;20063;-92
2024/02/24 10:22:54;;;;;;;0.60;0.60;;;;;;;13.17;40.54;97247.19;4968188;28;20060;-93
2024/02/24 10:25:20;;;;;;;0.70;0.70;;;;;;;12.11;42.05;97255.53;4970550;28;20035;-94
2024/02/24 10:27:49;;;;;;;0.60;0.60;;;;;;;12.14;42.86;97250.19;4968263;28;20059;-92
2024/02/24 10:30:15;;;;;;;0.60;0.60;;;;;;;12.41;42.47;97243.94;4979748;28;20043;-92
2024/02/24 10:32:42;;;;;;;0.60;0.60;;;;;;;12.16;42.86;97252.84;4961831;28;20058;-93
2024/02/24 10:35:34;;;;;;;0.70;0.70;;;;;;;12.07;41.61;97267.13;4973022;28;20090;-92
2024/02/24 10:38:06;;;;;;;0.70;0.70;;;;;;;13.03;41.23;97261.56;4979101;28;20058;-91
2024/02/24 10:40:32;;;;;;;0.68;0.68;;;;;;;14.14;39.82;97260.91;4974273;28;20113;-91
2024/02/24 10:42:58;;;;;;;0.70;0.70;;;;;;;14.23;38.96;97269.75;4971739;28;20057;-92
2024/02/24 10:45:26;;;;;;;0.60;0.60;;;;;;;14.54;38.34;97262.31;4930513;28;20496;-92
2024/02/24 10:47:53;;;;;;;0.40;0.40;;;;;;;13.41;38.62;97263.19;4974055;28;20382;-92
2024/02/24 10:50:22;;;;;;;0.60;0.60;;;;;;;13.41;40.18;97268.53;4968006;28;20027;-92
2024/02/24 10:52:51;;;;;;;0.60;0.60;;;;;;;14.44;38.62;97267.78;4941241;28;20042;-92
2024/02/24 10:55:21;;;;;;;0.40;0.40;;;;;;;13.26;39.99;97277.53;4956639;28;20039;-91
2024/02/24 10:57:52;;;;;;;0.40;0.40;;;;;;;12.27;41.31;97277.81;4954779;28;20061;-92
2024/02/24 11:00:35;;;;;;;0.60;0.60;;;;;;;10.48;45.29;97282.63;4961830;28;20051;-93
2024/02/24 11:03:04;;;;;;;0.52;0.52;;;;;;;11.00;44.08;97278.47;4968765;28;20101;-92
2024/02/24 11:05:32;;;;;;;0.80;0.80;;;;;;;11.37;43.63;97280.38;4942264;28;20089;-91
2024/02/24 11:07:58;;;;;;;0.60;0.60;;;;;;;11.07;44.71;97278.47;4980384;28;20054;-93
2024/02/24 11:10:32;;;;;;;0.60;0.60;;;;;;;10.16;48.60;97301.97;4972032;28;20035;-92
2024/02/24 11:13:00;;;;;;;0.60;0.60;;;;;;;9.63;53.51;97286.41;4959053;28;20058;-91
2024/02/24 11:15:27;;;;;;;0.70;0.70;;;;;;;9.61;53.16;97293.47;4958785;28;20039;-91
2024/02/24 11:17:58;;;;;;;0.70;0.70;;;;;;;9.41;51.19;97287.94;4973766;28;20034;-92
2024/02/24 11:20:38;;;;;;;0.70;0.70;;;;;;;10.13;49.74;97280.59;4957355;28;20147;-92
2024/02/24 11:23:24;;;;;;;0.70;0.70;;;;;;;11.62;44.46;97270.63;4975244;28;20043;-92
2024/02/24 11:26:20;;;;;;;0.60;0.60;;;;;;;13.39;40.70;97259.63;4960518;28;20042;-91
2024/02/24 11:29:08;;;;;;;0.70;0.70;;;;;;;13.81;40.34;97266.50;4962531;28;20039;-92
2024/02/24 11:31:43;;;;;;;0.70;0.70;;;;;;;15.49;37.27;97247.75;4985276;28;20033;-92
2024/02/24 11:34:10;;;;;;;0.60;0.60;;;;;;;15.54;36.57;97247.69;4985705;28;20074;-91
2024/02/24 11:36:40;;;;;;;0.60;0.60;;;;;;;15.65;37.08;97254.69;4973307;28;20050;-92
2024/02/24 11:39:12;;;;;;;0.50;0.50;;;;;;;15.20;37.72;97258.88;4968366;28;20110;-91